This is the latest recevied weather packets stored in our database for station/object G0TQM-11. If no packets are shown the sender has not sent any weather packets the latest 10 day(s).
| Time | Temp. | Humidity | Pressure | Rain* | Wind** | Luminosity | Snow |
|---|---|---|---|---|---|---|---|
| 1788289312 | 20.56° C | 49% | 1014.4 hPa | - | - | - | - |
| 1788288112 | 21.11° C | 48% | 1014.5 hPa | - | - | - | - |
| 1788286912 | 21.67° C | 47% | 1014.5 hPa | - | - | - | - |
| 1788285712 | 21.67° C | 47% | 1014.5 hPa | - | - | - | - |
| 1788284512 | 22.78° C | 45% | 1014.4 hPa | - | - | - | - |
| 1788283312 | 22.78° C | 46% | 1014.6 hPa | - | - | - | - |
| 1788282111 | 22.78° C | 45% | 1014.5 hPa | - | - | - | - |
| 1788280911 | 22.78° C | 45% | 1014.7 hPa | - | - | - | - |
| 1788279711 | 23.33° C | 43% | 1014.6 hPa | - | - | - | - |
| 1788278511 | 23.33° C | 42% | 1014.7 hPa | - | - | - | - |
| 1788277311 | 23.89° C | 41% | 1014.8 hPa | - | - | - | - |
| 1788276111 | 24.44° C | 40% | 1014.9 hPa | - | - | - | - |
| 1788274911 | 23.89° C | 41% | 1014.5 hPa | - | - | - | - |
| 1788273710 | 23.33° C | 43% | 1014.8 hPa | - | - | - | - |
| 1788272510 | 24.44° C | 41% | 1014.6 hPa | - | - | - | - |
| 1788271310 | 23.89° C | 41% | 1014.6 hPa | - | - | - | - |
| 1788270110 | 24.44° C | 41% | 1014.6 hPa | - | - | - | - |
| 1788268910 | 25° C | 40% | 1014.8 hPa | - | - | - | - |
| 1788267710 | 25° C | 43% | 1014.8 hPa | - | - | - | - |
| 1788266510 | 23.89° C | 46% | 1014.7 hPa | - | - | - | - |
| 1788265310 | 22.78° C | 49% | 1014.9 hPa | - | - | - | - |
| 1788264109 | 23.33° C | 46% | 1014.9 hPa | - | - | - | - |
| 1788262909 | 22.78° C | 45% | 1015 hPa | - | - | - | - |
| 1788261709 | 25° C | 39% | 1014.7 hPa | - | - | - | - |
| 1788260509 | 26.11° C | 36% | 1014.8 hPa | - | - | - | - |
* Rain since midnight (hover to see other rain measurements)
** Current wind speed in m/s (hover to see current wind gust speed)